Time;durP1;ratioP1;P1;durP2;ratioP2;P2;SDS_P1;SDS_P2;PMS_P1;PMS_P2;Temp;Humidity;BMP_temperature;BMP_pressure;BME280_temperature;BME280_humidity;BME280_pressure;Samples;Min_cycle;Max_cycle;Signal;HPM_P1;HPM_P2
2022/10/15 00:01:20;;;;;;;3.22;0.60;;;;;;;;;;5013774;28;20049;-64
2022/10/15 00:03:47;;;;;;;2.20;0.82;;;;;;;;;;5013753;28;20057;-64
2022/10/15 00:06:16;;;;;;;1.15;0.82;;;;;;;;;;5013543;28;20420;-64
2022/10/15 00:08:43;;;;;;;2.33;0.77;;;;;;;;;;5012719;28;20042;-64
2022/10/15 00:11:12;;;;;;;1.85;0.65;;;;;;;;;;5013438;28;20045;-64
2022/10/15 00:13:38;;;;;;;0.68;0.60;;;;;;;;;;5013454;28;20089;-64
2022/10/15 00:16:10;;;;;;;0.55;0.47;;;;;;;;;;5013439;28;20057;-64
2022/10/15 00:18:37;;;;;;;0.70;0.60;;;;;;;;;;5011639;28;20042;-64
2022/10/15 00:21:06;;;;;;;2.65;0.77;;;;;;;;;;5013135;28;20092;-64
2022/10/15 00:23:32;;;;;;;1.67;0.80;;;;;;;;;;5012643;28;20089;-64
2022/10/15 00:26:01;;;;;;;1.08;0.75;;;;;;;;;;5013137;28;20053;-64
2022/10/15 00:28:28;;;;;;;2.20;0.70;;;;;;;;;;5012606;28;20042;-64
2022/10/15 00:31:01;;;;;;;0.82;0.60;;;;;;;;;;5013223;28;20050;-64
2022/10/15 00:33:33;;;;;;;2.45;0.70;;;;;;;;;;5013152;28;20211;-64
2022/10/15 00:36:04;;;;;;;1.95;1.15;;;;;;;;;;5012877;28;20133;-64
2022/10/15 00:38:31;;;;;;;1.20;0.70;;;;;;;;;;5012558;28;20188;-64
2022/10/15 00:40:58;;;;;;;1.48;0.60;;;;;;;;;;5013076;28;20050;-64
2022/10/15 00:43:38;;;;;;;3.17;0.70;;;;;;;;;;5013224;28;20046;-64
2022/10/15 00:46:06;;;;;;;1.48;0.60;;;;;;;;;;5012813;28;20471;-64
2022/10/15 00:48:33;;;;;;;0.32;0.32;;;;;;;;;;5010890;28;20061;-64
2022/10/15 00:50:59;;;;;;;3.13;0.60;;;;;;;;;;5011471;28;20054;-64
2022/10/15 00:53:26;;;;;;;0.80;0.60;;;;;;;;;;5011834;28;20441;-64
2022/10/15 00:55:52;;;;;;;0.65;0.45;;;;;;;;;;5011608;28;20082;-64
2022/10/15 00:58:27;;;;;;;1.38;0.40;;;;;;;;;;5011972;28;20049;-64
2022/10/15 01:00:54;;;;;;;0.70;0.43;;;;;;;;;;5012523;28;20108;-64
2022/10/15 01:03:21;;;;;;;0.40;0.40;;;;;;;;;;4995256;28;20108;-64
2022/10/15 01:05:50;;;;;;;1.40;0.45;;;;;;;;;;5012775;28;20065;-64
2022/10/15 01:08:16;;;;;;;3.97;0.93;;;;;;;;;;5010844;28;20046;-64
2022/10/15 01:11:04;;;;;;;0.90;0.50;;;;;;;;;;5012219;28;20053;-64
2022/10/15 01:14:17;;;;;;;0.75;0.40;;;;;;;;;;5010749;28;20049;-64
2022/10/15 01:16:45;;;;;;;2.53;0.40;;;;;;;;;;5012645;28;20053;-64
2022/10/15 01:19:47;;;;;;;0.40;0.40;;;;;;;;;;5010576;28;20280;-64
2022/10/15 01:22:49;;;;;;;0.50;0.40;;;;;;;;;;5011487;28;20104;-63
2022/10/15 01:25:42;;;;;;;0.65;0.40;;;;;;;;;;5007390;28;20512;-64
2022/10/15 01:28:33;;;;;;;0.70;0.45;;;;;;;;;;5003460;28;20085;-64
2022/10/15 01:31:08;;;;;;;2.67;0.40;;;;;;;;;;5012296;28;20471;-64
2022/10/15 01:33:39;;;;;;;0.25;0.25;;;;;;;;;;5010962;28;20060;-64
2022/10/15 01:36:17;;;;;;;0.93;0.30;;;;;;;;;;4995225;28;20579;-64
2022/10/15 01:39:02;;;;;;;0.50;0.30;;;;;;;;;;5010525;28;20070;-64
2022/10/15 01:41:42;;;;;;;0.30;0.30;;;;;;;;;;4995155;28;20077;-64
2022/10/15 01:44:15;;;;;;;1.20;0.22;;;;;;;;;;5010965;28;20050;-64
2022/10/15 01:46:49;;;;;;;0.43;0.35;;;;;;;;;;4995483;28;20599;-64
2022/10/15 01:49:20;;;;;;;0.13;0.13;;;;;;;;;;5010399;28;20046;-64
2022/10/15 01:51:46;;;;;;;0.40;0.30;;;;;;;;;;5011016;28;20056;-64
2022/10/15 01:54:15;;;;;;;1.25;0.40;;;;;;;;;;5010746;28;20489;-64
2022/10/15 01:56:45;;;;;;;1.10;0.20;;;;;;;;;;4994573;28;20061;-64
2022/10/15 01:59:12;;;;;;;0.20;0.20;;;;;;;;;;4994404;28;20077;-64
2022/10/15 02:01:42;;;;;;;0.28;0.28;;;;;;;;;;4994261;28;20050;-64
2022/10/15 02:04:25;;;;;;;2.15;0.30;;;;;;;;;;5010605;28;20509;-64
2022/10/15 02:07:00;;;;;;;1.95;0.20;;;;;;;;;;5012048;28;20254;-64
2022/10/15 02:09:33;;;;;;;1.13;0.20;;;;;;;;;;5009983;28;20042;-64
2022/10/15 02:12:06;;;;;;;6.45;0.75;;;;;;;;;;5011613;28;20081;-64
2022/10/15 02:14:36;;;;;;;0.20;0.20;;;;;;;;;;5009432;28;20108;-64
2022/10/15 02:17:10;;;;;;;3.50;0.50;;;;;;;;;;5010599;28;20066;-64
2022/10/15 02:19:51;;;;;;;0.20;0.20;;;;;;;;;;5009885;28;20133;-64
2022/10/15 02:22:25;;;;;;;2.13;0.38;;;;;;;;;;5010432;28;20501;-64
2022/10/15 02:25:03;;;;;;;0.85;0.38;;;;;;;;;;4995465;28;20089;-64
2022/10/15 02:27:30;;;;;;;0.80;0.22;;;;;;;;;;5011504;28;20053;-64
2022/10/15 02:29:57;;;;;;;2.60;0.60;;;;;;;;;;4993569;28;20128;-64
2022/10/15 02:32:24;;;;;;;2.28;0.30;;;;;;;;;;5010462;28;20129;-64
2022/10/15 02:34:52;;;;;;;0.60;0.30;;;;;;;;;;5010250;28;20089;-64
2022/10/15 02:37:20;;;;;;;3.35;0.40;;;;;;;;;;5010652;28;20054;-64
2022/10/15 02:39:46;;;;;;;0.70;0.30;;;;;;;;;;4993569;28;20050;-64
2022/10/15 02:42:16;;;;;;;2.95;0.30;;;;;;;;;;5010657;28;20054;-64
2022/10/15 02:44:43;;;;;;;1.10;0.30;;;;;;;;;;4994540;28;20136;-64
2022/10/15 02:47:10;;;;;;;0.32;0.30;;;;;;;;;;5014365;28;20512;-64
2022/10/15 02:49:36;;;;;;;0.88;0.30;;;;;;;;;;5013218;28;20049;-64
2022/10/15 02:52:03;;;;;;;2.80;0.40;;;;;;;;;;5015117;28;20099;-64
2022/10/15 02:54:30;;;;;;;1.35;0.30;;;;;;;;;;5015184;28;20089;-64
2022/10/15 02:56:57;;;;;;;0.20;0.20;;;;;;;;;;5014970;28;20049;-64
2022/10/15 02:59:23;;;;;;;0.20;0.17;;;;;;;;;;5014177;28;20096;-64
2022/10/15 03:01:50;;;;;;;1.50;0.30;;;;;;;;;;5014640;28;20050;-64
2022/10/15 03:04:16;;;;;;;3.97;0.77;;;;;;;;;;5014847;28;20420;-64
2022/10/15 03:06:43;;;;;;;1.30;0.20;;;;;;;;;;5015051;28;20049;-64
2022/10/15 03:09:10;;;;;;;2.22;0.32;;;;;;;;;;5014080;28;20096;-64
2022/10/15 03:11:37;;;;;;;0.90;0.80;;;;;;;;;;5014381;28;20092;-64
2022/10/15 03:14:04;;;;;;;0.75;0.30;;;;;;;;;;5012271;28;20050;-64
2022/10/15 03:16:30;;;;;;;1.08;0.30;;;;;;;;;;5014394;28;20057;-64
2022/10/15 03:18:57;;;;;;;2.05;0.20;;;;;;;;;;5013896;28;20085;-64
2022/10/15 03:21:23;;;;;;;0.30;0.30;;;;;;;;;;5014674;28;20128;-64
2022/10/15 03:23:50;;;;;;;1.35;0.40;;;;;;;;;;5014464;28;20132;-64
2022/10/15 03:26:17;;;;;;;1.65;0.30;;;;;;;;;;5014353;28;20111;-64
2022/10/15 03:28:43;;;;;;;0.57;0.30;;;;;;;;;;5013720;28;20045;-65
2022/10/15 03:31:12;;;;;;;1.27;0.28;;;;;;;;;;5014577;28;20045;-65
2022/10/15 03:33:39;;;;;;;1.55;0.60;;;;;;;;;;5014352;28;20089;-66
2022/10/15 03:36:06;;;;;;;2.25;0.28;;;;;;;;;;5014256;28;20050;-65
2022/10/15 03:38:33;;;;;;;1.00;0.30;;;;;;;;;;5013599;28;20118;-65
2022/10/15 03:41:00;;;;;;;0.22;0.20;;;;;;;;;;5014235;28;20535;-65
2022/10/15 03:43:26;;;;;;;1.70;0.50;;;;;;;;;;5013981;28;20103;-65
2022/10/15 03:45:53;;;;;;;1.35;0.40;;;;;;;;;;5013996;28;20061;-64
2022/10/15 03:48:20;;;;;;;0.40;0.20;;;;;;;;;;5013417;28;20513;-64
2022/10/15 03:50:47;;;;;;;1.17;0.38;;;;;;;;;;5013864;28;20137;-65
2022/10/15 03:53:13;;;;;;;3.60;0.57;;;;;;;;;;5014027;28;20424;-64
2022/10/15 03:55:40;;;;;;;0.40;0.30;;;;;;;;;;5013791;28;20145;-65
2022/10/15 03:58:06;;;;;;;1.25;0.40;;;;;;;;;;5013216;28;20144;-64
2022/10/15 04:00:33;;;;;;;1.48;0.30;;;;;;;;;;5012638;28;20054;-64
2022/10/15 04:03:00;;;;;;;2.08;0.30;;;;;;;;;;5013633;28;20497;-65
2022/10/15 04:05:27;;;;;;;1.65;0.20;;;;;;;;;;5013966;28;20054;-65
2022/10/15 04:07:53;;;;;;;3.17;0.30;;;;;;;;;;5013161;28;20084;-65
2022/10/15 04:10:20;;;;;;;0.30;0.20;;;;;;;;;;5013597;28;20129;-65
2022/10/15 04:12:47;;;;;;;1.58;0.30;;;;;;;;;;5013572;28;20054;-65
2022/10/15 04:15:13;;;;;;;0.20;0.20;;;;;;;;;;5011349;28;20137;-65
2022/10/15 04:17:40;;;;;;;0.60;0.28;;;;;;;;;;5013751;28;20054;-64
2022/10/15 04:20:07;;;;;;;3.33;0.30;;;;;;;;;;5012720;28;20081;-66
2022/10/15 04:22:36;;;;;;;1.65;0.30;;;;;;;;;;5013455;28;20088;-65
2022/10/15 04:25:03;;;;;;;0.38;0.22;;;;;;;;;;5013250;28;20137;-65
2022/10/15 04:27:29;;;;;;;2.25;0.32;;;;;;;;;;5013506;28;20130;-65
2022/10/15 04:29:56;;;;;;;3.97;0.38;;;;;;;;;;5012700;28;20104;-65
2022/10/15 04:32:22;;;;;;;2.20;0.38;;;;;;;;;;5013348;28;20053;-64
2022/10/15 04:34:49;;;;;;;0.52;0.30;;;;;;;;;;5013297;28;20046;-64
2022/10/15 04:37:16;;;;;;;3.45;0.50;;;;;;;;;;5013632;28;20547;-65
2022/10/15 04:39:43;;;;;;;0.85;0.30;;;;;;;;;;5012225;28;20045;-64
2022/10/15 04:42:09;;;;;;;0.28;0.25;;;;;;;;;;5013544;28;20456;-64
2022/10/15 04:44:36;;;;;;;1.30;0.40;;;;;;;;;;5012969;28;20189;-65
2022/10/15 04:47:02;;;;;;;0.20;0.20;;;;;;;;;;5013013;28;20480;-64
2022/10/15 04:49:29;;;;;;;1.73;0.40;;;;;;;;;;5012480;28;20169;-64
2022/10/15 04:51:55;;;;;;;0.45;0.20;;;;;;;;;;5012667;28;20134;-65
2022/10/15 04:54:22;;;;;;;0.70;0.20;;;;;;;;;;5012898;28;20097;-64
2022/10/15 04:56:49;;;;;;;1.30;0.28;;;;;;;;;;5013161;28;20108;-64
2022/10/15 04:59:15;;;;;;;1.10;0.40;;;;;;;;;;5012440;28;20050;-65
2022/10/15 05:01:42;;;;;;;0.20;0.20;;;;;;;;;;5012839;28;20161;-65
2022/10/15 05:04:11;;;;;;;0.95;0.40;;;;;;;;;;5012856;28;20077;-65
2022/10/15 05:06:37;;;;;;;0.28;0.28;;;;;;;;;;5012824;28;20081;-64
2022/10/15 05:09:04;;;;;;;0.60;0.40;;;;;;;;;;5011390;28;20081;-64
2022/10/15 05:11:30;;;;;;;1.45;0.30;;;;;;;;;;5012417;28;20049;-64
2022/10/15 05:13:57;;;;;;;2.22;0.50;;;;;;;;;;5010311;28;20501;-65
2022/10/15 05:16:26;;;;;;;1.38;0.30;;;;;;;;;;5012859;28;20050;-65
2022/10/15 05:19:01;;;;;;;0.93;0.30;;;;;;;;;;5012233;28;20628;-65
2022/10/15 05:21:28;;;;;;;1.00;0.30;;;;;;;;;;5012664;28;20081;-65
2022/10/15 05:23:55;;;;;;;2.03;0.40;;;;;;;;;;5012730;28;20053;-64
2022/10/15 05:26:22;;;;;;;0.68;0.20;;;;;;;;;;5012881;28;20077;-65
2022/10/15 05:28:49;;;;;;;1.48;0.20;;;;;;;;;;5012486;28;20133;-65
2022/10/15 05:31:18;;;;;;;1.13;0.28;;;;;;;;;;5012450;28;20060;-64
2022/10/15 05:33:49;;;;;;;0.70;0.40;;;;;;;;;;5015300;28;20103;-65
2022/10/15 05:36:22;;;;;;;0.88;0.20;;;;;;;;;;5012397;28;20113;-65
2022/10/15 05:38:53;;;;;;;0.82;0.28;;;;;;;;;;5011745;28;20049;-65
2022/10/15 05:41:20;;;;;;;0.25;0.20;;;;;;;;;;5012394;28;20128;-65
2022/10/15 05:43:47;;;;;;;1.98;0.38;;;;;;;;;;5012450;28;20085;-65
2022/10/15 05:46:14;;;;;;;1.30;0.35;;;;;;;;;;5012135;28;20128;-65
2022/10/15 05:48:41;;;;;;;2.70;0.50;;;;;;;;;;5011292;28;20132;-65
2022/10/15 05:51:10;;;;;;;1.27;0.30;;;;;;;;;;5012381;28;20492;-65
2022/10/15 05:53:37;;;;;;;2.65;0.50;;;;;;;;;;5010892;28;20573;-65
2022/10/15 05:56:04;;;;;;;0.60;0.60;;;;;;;;;;5012124;28;20046;-65
2022/10/15 05:58:32;;;;;;;0.82;0.40;;;;;;;;;;5011507;28;20493;-64
2022/10/15 06:01:05;;;;;;;0.60;0.45;;;;;;;;;;5012301;28;20110;-64
2022/10/15 06:03:31;;;;;;;0.60;0.55;;;;;;;;;;5015635;28;20058;-65
2022/10/15 06:05:58;;;;;;;2.55;0.63;;;;;;;;;;5023474;28;20046;-65
2022/10/15 06:08:27;;;;;;;1.20;0.57;;;;;;;;;;5020543;28;20054;-64
2022/10/15 06:10:55;;;;;;;0.52;0.40;;;;;;;;;;5019410;28;20053;-64
2022/10/15 06:13:21;;;;;;;2.70;0.60;;;;;;;;;;5017261;28;20081;-64
2022/10/15 06:15:48;;;;;;;2.38;0.57;;;;;;;;;;5018855;28;20131;-65
2022/10/15 06:18:15;;;;;;;1.13;0.80;;;;;;;;;;5019153;28;20054;-65
2022/10/15 06:20:42;;;;;;;0.95;0.40;;;;;;;;;;5019840;28;20050;-65
2022/10/15 06:23:10;;;;;;;1.20;0.70;;;;;;;;;;5021381;28;20050;-64
2022/10/15 06:25:37;;;;;;;1.00;0.70;;;;;;;;;;5023621;28;20081;-65
2022/10/15 06:28:05;;;;;;;2.38;0.88;;;;;;;;;;5023182;28;20100;-64
2022/10/15 06:30:32;;;;;;;1.15;0.70;;;;;;;;;;5025595;28;20045;-63
2022/10/15 06:32:59;;;;;;;1.25;0.70;;;;;;;;;;5022052;28;20061;-63
2022/10/15 06:35:29;;;;;;;0.65;0.65;;;;;;;;;;5023307;28;20050;-64
2022/10/15 06:37:57;;;;;;;0.80;0.68;;;;;;;;;;5020306;28;20127;-64
2022/10/15 06:40:28;;;;;;;;;;;;;;;;;;4988706;28;20101;-63
2022/10/15 06:42:55;;;;;;;0.80;0.60;;;;;;;;;;5022228;28;19921;-64
2022/10/15 06:45:21;;;;;;;2.15;1.10;;;;;;;;;;5017367;28;20405;-63
2022/10/15 06:47:48;;;;;;;2.55;0.82;;;;;;;;;;5014961;28;20093;-67
2022/10/15 06:50:14;;;;;;;2.60;0.73;;;;;;;;;;5014921;28;20129;-63
2022/10/15 06:52:41;;;;;;;4.55;2.03;;;;;;;;;;5015145;28;20096;-63
2022/10/15 06:55:08;;;;;;;2.30;1.30;;;;;;;;;;5013842;28;20104;-65
2022/10/15 06:57:35;;;;;;;2.97;1.73;;;;;;;;;;5015379;28;20053;-63
2022/10/15 07:00:02;;;;;;;4.25;1.75;;;;;;;;;;5014397;28;20120;-63
2022/10/15 07:02:28;;;;;;;6.70;2.17;;;;;;;;;;5013889;28;20564;-63
2022/10/15 07:04:55;;;;;;;3.72;2.00;;;;;;;;;;5015026;28;20050;-63
2022/10/15 07:07:21;;;;;;;1.95;1.38;;;;;;;;;;5015034;28;20115;-63
2022/10/15 07:09:52;;;;;;;3.42;2.25;;;;;;;;;;5013804;28;20046;-65
2022/10/15 07:12:20;;;;;;;3.88;2.25;;;;;;;;;;5014660;28;20501;-63
2022/10/15 07:14:48;;;;;;;4.18;1.98;;;;;;;;;;5013123;28;20129;-62
2022/10/15 07:17:15;;;;;;;4.25;2.40;;;;;;;;;;5014949;28;20127;-65
2022/10/15 07:19:42;;;;;;;3.63;2.40;;;;;;;;;;5013893;28;20049;-62
2022/10/15 07:22:09;;;;;;;4.60;2.35;;;;;;;;;;5014268;28;20188;-63
2022/10/15 07:24:36;;;;;;;2.10;1.20;;;;;;;;;;5014561;28;20054;-62
2022/10/15 07:27:03;;;;;;;2.67;0.93;;;;;;;;;;5014323;28;20501;-62
2022/10/15 07:29:42;;;;;;;4.60;1.10;;;;;;;;;;5013706;28;20054;-61
2022/10/15 07:32:09;;;;;;;2.72;1.48;;;;;;;;;;5013925;28;20046;-62
2022/10/15 07:34:35;;;;;;;2.15;1.00;;;;;;;;;;5014168;28;20049;-62
2022/10/15 07:37:02;;;;;;;2.08;0.95;;;;;;;;;;5014003;28;20167;-62
2022/10/15 07:39:28;;;;;;;1.00;0.90;;;;;;;;;;5013850;28;20363;-62
2022/10/15 07:41:55;;;;;;;2.30;0.80;;;;;;;;;;5014048;28;20060;-64
2022/10/15 07:44:21;;;;;;;2.33;1.00;;;;;;;;;;5014034;28;20095;-63
2022/10/15 07:46:48;;;;;;;0.90;0.80;;;;;;;;;;5014366;28;20089;-63
2022/10/15 07:49:15;;;;;;;1.45;0.90;;;;;;;;;;5013287;28;20081;-63
2022/10/15 07:51:41;;;;;;;1.08;0.98;;;;;;;;;;5014248;28;20077;-63
2022/10/15 07:54:08;;;;;;;2.00;1.10;;;;;;;;;;5013784;28;20054;-63
2022/10/15 07:56:35;;;;;;;1.42;0.65;;;;;;;;;;5014175;28;20092;-63
2022/10/15 07:59:01;;;;;;;2.42;0.73;;;;;;;;;;5012157;28;20100;-64
2022/10/15 08:01:28;;;;;;;1.50;0.60;;;;;;;;;;5013749;28;20054;-63
2022/10/15 08:03:54;;;;;;;3.63;1.02;;;;;;;;;;5013561;28;20401;-63
2022/10/15 08:06:21;;;;;;;1.40;0.70;;;;;;;;;;5013994;28;20046;-64
2022/10/15 08:08:48;;;;;;;1.10;0.80;;;;;;;;;;5012869;28;20555;-64
2022/10/15 08:11:15;;;;;;;1.35;0.40;;;;;;;;;;5013482;28;20073;-64
2022/10/15 08:13:42;;;;;;;2.35;0.80;;;;;;;;;;5012071;28;20464;-64
2022/10/15 08:16:10;;;;;;;2.00;0.68;;;;;;;;;;5013539;28;20079;-64
2022/10/15 08:18:37;;;;;;;2.97;0.70;;;;;;;;;;5012612;28;20140;-64
2022/10/15 08:21:05;;;;;;;2.00;0.75;;;;;;;;;;5013519;28;20105;-65
2022/10/15 08:23:32;;;;;;;2.88;0.88;;;;;;;;;;5013509;28;20107;-64
2022/10/15 08:25:59;;;;;;;1.10;0.80;;;;;;;;;;5013237;28;20100;-65
2022/10/15 08:28:30;;;;;;;1.23;0.68;;;;;;;;;;5013157;28;20085;-64
2022/10/15 08:30:58;;;;;;;0.93;0.70;;;;;;;;;;5013206;28;20046;-64
2022/10/15 08:33:32;;;;;;;3.22;0.80;;;;;;;;;;5013406;28;20058;-64
2022/10/15 08:35:58;;;;;;;1.88;0.70;;;;;;;;;;5013251;28;20140;-64
2022/10/15 08:38:25;;;;;;;0.88;0.70;;;;;;;;;;5012506;28;20096;-64
2022/10/15 08:40:56;;;;;;;2.08;0.80;;;;;;;;;;5013031;28;20046;-64
2022/10/15 08:43:27;;;;;;;1.42;0.70;;;;;;;;;;4995077;28;20046;-64
2022/10/15 08:45:57;;;;;;;6.90;0.70;;;;;;;;;;5013246;28;20180;-64
2022/10/15 08:48:32;;;;;;;0.60;0.60;;;;;;;;;;4995343;28;20111;-64
2022/10/15 08:51:03;;;;;;;1.80;0.70;;;;;;;;;;5011631;28;20049;-64
2022/10/15 08:53:29;;;;;;;1.73;0.50;;;;;;;;;;5011820;28;20100;-64
2022/10/15 08:55:59;;;;;;;1.50;0.65;;;;;;;;;;5011461;28;20046;-64
2022/10/15 08:58:54;;;;;;;1.65;0.93;;;;;;;;;;4994906;28;20555;-64
2022/10/15 09:01:42;;;;;;;1.40;1.08;;;;;;;;;;5012725;28;20133;-64
2022/10/15 09:04:19;;;;;;;0.75;0.70;;;;;;;;;;5011661;28;20049;-64
2022/10/15 09:06:46;;;;;;;1.40;0.70;;;;;;;;;;5011841;28;20054;-64
2022/10/15 09:09:29;;;;;;;1.70;1.13;;;;;;;;;;4994450;28;20050;-64
2022/10/15 09:12:17;;;;;;;0.95;0.85;;;;;;;;;;5011315;28;20132;-64
2022/10/15 09:14:43;;;;;;;1.85;1.23;;;;;;;;;;5011023;28;20124;-64
2022/10/15 09:17:30;;;;;;;1.10;0.88;;;;;;;;;;5011368;28;20137;-64
2022/10/15 09:19:57;;;;;;;2.75;1.00;;;;;;;;;;5011014;28;20081;-64
2022/10/15 09:22:26;;;;;;;0.95;0.73;;;;;;;;;;5011185;28;20096;-64
2022/10/15 09:24:53;;;;;;;3.65;1.17;;;;;;;;;;5011213;28;20151;-64
2022/10/15 09:27:33;;;;;;;2.83;1.00;;;;;;;;;;5011342;28;20129;-64
2022/10/15 09:30:12;;;;;;;1.63;1.10;;;;;;;;;;5010461;28;20054;-64
2022/10/15 09:32:59;;;;;;;1.40;1.30;;;;;;;;;;5013022;28;20050;-65
2022/10/15 09:35:42;;;;;;;1.60;1.50;;;;;;;;;;5011929;28;20089;-63
2022/10/15 09:38:35;;;;;;;2.60;1.73;;;;;;;;;;4996580;28;20132;-65
2022/10/15 09:41:20;;;;;;;4.63;1.30;;;;;;;;;;5010822;28;20563;-65
2022/10/15 09:43:50;;;;;;;2.33;1.45;;;;;;;;;;5012091;28;20097;-65
2022/10/15 09:46:17;;;;;;;1.83;1.73;;;;;;;;;;4994695;28;20096;-64
2022/10/15 09:48:56;;;;;;;4.18;2.75;;;;;;;;;;5011582;28;20511;-65
2022/10/15 09:51:34;;;;;;;2.42;1.88;;;;;;;;;;5010726;28;20041;-65
2022/10/15 09:54:19;;;;;;;1.95;1.40;;;;;;;;;;5012108;28;20474;-65
2022/10/15 09:56:48;;;;;;;2.13;0.90;;;;;;;;;;5016498;28;20112;-65
2022/10/15 09:59:19;;;;;;;2.15;1.13;;;;;;;;;;4998565;28;20053;-64
2022/10/15 10:02:15;;;;;;;1.38;1.20;;;;;;;;;;5016117;28;20150;-65
2022/10/15 10:04:41;;;;;;;3.08;1.40;;;;;;;;;;5015221;28;20054;-65
2022/10/15 10:07:27;;;;;;;3.92;2.38;;;;;;;;;;5016164;28;20103;-65
2022/10/15 10:09:55;;;;;;;3.97;1.88;;;;;;;;;;5014200;28;20046;-65
2022/10/15 10:12:26;;;;;;;2.75;1.30;;;;;;;;;;5015921;28;20479;-66
2022/10/15 10:14:52;;;;;;;2.13;0.88;;;;;;;;;;5012855;28;20500;-65
2022/10/15 10:17:21;;;;;;;1.23;0.80;;;;;;;;;;5015619;28;20050;-64
2022/10/15 10:20:15;;;;;;;2.33;1.00;;;;;;;;;;5014864;28;20060;-65
2022/10/15 10:22:52;;;;;;;1.00;0.90;;;;;;;;;;5015503;28;20138;-64
2022/10/15 10:25:29;;;;;;;3.58;1.70;;;;;;;;;;5015700;28;20136;-65
2022/10/15 10:28:01;;;;;;;2.10;1.05;;;;;;;;;;5014881;28;20061;-65
2022/10/15 10:31:06;;;;;;;1.42;1.00;;;;;;;;;;5015240;28;20080;-64
2022/10/15 10:33:44;;;;;;;3.33;0.82;;;;;;;;;;4982060;28;20524;-65
2022/10/15 10:36:27;;;;;;;2.58;0.85;;;;;;;;;;5009565;28;20045;-65
2022/10/15 10:39:09;;;;;;;2.15;0.70;;;;;;;;;;5013879;28;20049;-64
2022/10/15 10:41:49;;;;;;;1.92;0.70;;;;;;;;;;5015147;28;20567;-64
2022/10/15 10:44:33;;;;;;;1.27;0.73;;;;;;;;;;5015231;28;20406;-65
2022/10/15 10:47:16;;;;;;;1.65;0.52;;;;;;;;;;5015374;28;20046;-65
2022/10/15 10:49:51;;;;;;;1.92;0.70;;;;;;;;;;5014355;28;20100;-66
2022/10/15 10:52:23;;;;;;;2.05;0.50;;;;;;;;;;5014980;28;20111;-65
2022/10/15 10:55:16;;;;;;;1.75;0.70;;;;;;;;;;5014790;28;20156;-65
2022/10/15 10:57:47;;;;;;;;;;;;;;;;;;5009704;28;20050;-65
2022/10/15 11:00:19;;;;;;;2.75;0.98;;;;;;;;;;5013579;28;19975;-65
2022/10/15 11:02:46;;;;;;;0.73;0.43;;;;;;;;;;5013811;28;20049;-65
2022/10/15 11:05:12;;;;;;;1.50;0.52;;;;;;;;;;5013549;28;20124;-65
2022/10/15 11:07:50;;;;;;;0.80;0.45;;;;;;;;;;4996792;28;20108;-64
2022/10/15 11:10:29;;;;;;;0.55;0.50;;;;;;;;;;5013361;28;20042;-66
2022/10/15 11:13:05;;;;;;;1.30;0.88;;;;;;;;;;4996869;28;20093;-65
2022/10/15 11:16:13;;;;;;;1.38;0.40;;;;;;;;;;4997530;28;20062;-64
2022/10/15 11:19:14;;;;;;;0.70;0.35;;;;;;;;;;4976061;28;20057;-65
2022/10/15 11:22:18;;;;;;;1.58;0.50;;;;;;;;;;5013642;28;20144;-65
2022/10/15 11:25:07;;;;;;;1.10;0.50;;;;;;;;;;4999162;28;20564;-65
2022/10/15 11:27:55;;;;;;;0.77;0.50;;;;;;;;;;4997815;28;20125;-66
2022/10/15 11:30:29;;;;;;;2.78;0.60;;;;;;;;;;4997954;28;20118;-66
2022/10/15 11:33:11;;;;;;;3.53;0.55;;;;;;;;;;5013104;28;20054;-65
2022/10/15 11:36:15;;;;;;;1.70;0.50;;;;;;;;;;5014334;28;20050;-66
2022/10/15 11:38:59;;;;;;;0.95;0.52;;;;;;;;;;5013521;28;20053;-65
2022/10/15 11:41:32;;;;;;;0.93;0.55;;;;;;;;;;5013017;28;20489;-66
2022/10/15 11:44:19;;;;;;;1.55;0.70;;;;;;;;;;5014288;28;20077;-66
2022/10/15 11:47:08;;;;;;;3.60;0.73;;;;;;;;;;5012823;28;20489;-65
2022/10/15 11:49:41;;;;;;;1.85;0.50;;;;;;;;;;5012234;28;20089;-66
2022/10/15 11:52:47;;;;;;;1.33;0.50;;;;;;;;;;5012790;28;20046;-66
2022/10/15 11:55:20;;;;;;;2.63;0.73;;;;;;;;;;5012823;28;20104;-66
2022/10/15 11:57:50;;;;;;;1.55;0.50;;;;;;;;;;4996744;28;20119;-64
2022/10/15 12:00:33;;;;;;;1.40;0.50;;;;;;;;;;4996974;28;20092;-66
2022/10/15 12:03:06;;;;;;;1.02;0.57;;;;;;;;;;5013146;28;20054;-65
2022/10/15 12:05:36;;;;;;;1.10;0.60;;;;;;;;;;5012567;28;20057;-65
2022/10/15 12:08:03;;;;;;;2.03;0.70;;;;;;;;;;5012005;28;20497;-66
2022/10/15 12:10:40;;;;;;;2.47;0.50;;;;;;;;;;5012607;28;20069;-66
2022/10/15 12:13:33;;;;;;;1.98;0.60;;;;;;;;;;5011525;28;20180;-66
2022/10/15 12:16:03;;;;;;;;;;;;;;;;;;5012840;28;20057;-65
2022/10/15 12:18:39;;;;;;;0.60;0.38;;;;;;;;;;5011952;28;20008;-64
2022/10/15 12:21:38;;;;;;;0.65;0.65;;;;;;;;;;5011997;28;20568;-65
2022/10/15 12:24:26;;;;;;;0.60;0.28;;;;;;;;;;5012391;28;20513;-65
2022/10/15 12:26:53;;;;;;;1.17;0.40;;;;;;;;;;5012334;28;20057;-65
2022/10/15 12:29:20;;;;;;;5.07;0.50;;;;;;;;;;5011687;28;20056;-66
2022/10/15 12:31:54;;;;;;;0.60;0.28;;;;;;;;;;4995719;28;20049;-65
2022/10/15 12:34:28;;;;;;;2.08;0.25;;;;;;;;;;5013297;28;20140;-64
2022/10/15 12:37:08;;;;;;;1.48;0.50;;;;;;;;;;5012886;28;20104;-64
2022/10/15 12:39:34;;;;;;;1.00;0.70;;;;;;;;;;5011483;28;20054;-65
2022/10/15 12:42:27;;;;;;;2.78;0.60;;;;;;;;;;4998345;28;20049;-65
2022/10/15 12:44:54;;;;;;;1.27;0.80;;;;;;;;;;5012894;28;20045;-65
2022/10/15 12:47:52;;;;;;;1.63;0.77;;;;;;;;;;5012773;28;20149;-65
2022/10/15 12:50:21;;;;;;;0.52;0.40;;;;;;;;;;5012584;28;20441;-66
2022/10/15 12:52:58;;;;;;;0.30;0.30;;;;;;;;;;5012712;28;20473;-65
2022/10/15 12:55:37;;;;;;;1.90;0.60;;;;;;;;;;5011615;28;20474;-63
2022/10/15 12:58:22;;;;;;;0.77;0.30;;;;;;;;;;5011238;28;20100;-65
2022/10/15 13:00:49;;;;;;;1.30;0.40;;;;;;;;;;5012632;28;20046;-65
2022/10/15 13:03:26;;;;;;;4.43;0.60;;;;;;;;;;5012724;28;20100;-65
2022/10/15 13:05:54;;;;;;;0.68;0.45;;;;;;;;;;5011401;28;20125;-64
2022/10/15 13:08:24;;;;;;;1.13;0.47;;;;;;;;;;5012117;28;20364;-65
2022/10/15 13:10:58;;;;;;;1.98;0.52;;;;;;;;;;5012209;28;20485;-65
2022/10/15 13:13:29;;;;;;;1.70;0.65;;;;;;;;;;5009276;28;20133;-66
2022/10/15 13:16:01;;;;;;;3.33;0.70;;;;;;;;;;4995102;28;20062;-66
2022/10/15 13:18:29;;;;;;;0.85;0.30;;;;;;;;;;5010477;28;20046;-63
2022/10/15 13:20:56;;;;;;;1.42;0.52;;;;;;;;;;4995136;28;20115;-65
2022/10/15 13:23:27;;;;;;;1.10;0.52;;;;;;;;;;5012503;28;20050;-64
2022/10/15 13:26:19;;;;;;;1.83;0.70;;;;;;;;;;5012328;28;20050;-65
2022/10/15 13:28:48;;;;;;;13.13;6.85;;;;;;;;;;5011653;28;20470;-65
2022/10/15 13:31:24;;;;;;;9.23;6.43;;;;;;;;;;5010385;28;20514;-64
2022/10/15 13:34:07;;;;;;;2.80;1.35;;;;;;;;;;4996228;28;20053;-65
2022/10/15 13:36:34;;;;;;;2.75;0.93;;;;;;;;;;4995430;28;20556;-65
2022/10/15 13:39:19;;;;;;;0.75;0.70;;;;;;;;;;5010750;28;20081;-65
2022/10/15 13:41:45;;;;;;;1.88;0.55;;;;;;;;;;4998129;28;20050;-64
2022/10/15 13:44:20;;;;;;;2.35;0.77;;;;;;;;;;5012354;28;20053;-65
2022/10/15 13:46:47;;;;;;;1.25;0.73;;;;;;;;;;5012332;28;20096;-65
2022/10/15 13:49:14;;;;;;;2.97;0.60;;;;;;;;;;5011357;28;20567;-64
2022/10/15 13:51:50;;;;;;;1.60;1.08;;;;;;;;;;5012055;28;20041;-65
2022/10/15 13:54:23;;;;;;;3.88;0.80;;;;;;;;;;5012583;28;20459;-66
2022/10/15 13:56:52;;;;;;;2.20;0.70;;;;;;;;;;4995218;28;20496;-66
2022/10/15 13:59:19;;;;;;;1.15;0.98;;;;;;;;;;5010667;28;20107;-65
2022/10/15 14:01:47;;;;;;;2.10;0.80;;;;;;;;;;5011439;28;20046;-65
2022/10/15 14:04:16;;;;;;;1.48;0.70;;;;;;;;;;5011191;28;20050;-65
2022/10/15 14:07:01;;;;;;;0.75;0.43;;;;;;;;;;5012137;28;20089;-66
2022/10/15 14:09:36;;;;;;;3.63;0.80;;;;;;;;;;5011497;28;20046;-65
2022/10/15 14:12:07;;;;;;;2.08;0.80;;;;;;;;;;5010862;28;20046;-65
2022/10/15 14:14:42;;;;;;;1.83;0.95;;;;;;;;;;5009594;28;20128;-65
2022/10/15 14:17:15;;;;;;;3.50;1.00;;;;;;;;;;5011897;28;20104;-66
2022/10/15 14:19:46;;;;;;;3.13;0.60;;;;;;;;;;5011237;28;20077;-65
2022/10/15 14:22:27;;;;;;;2.05;0.80;;;;;;;;;;4996937;28;20084;-65
2022/10/15 14:24:54;;;;;;;4.97;3.20;;;;;;;;;;5010535;28;20099;-66
2022/10/15 14:27:25;;;;;;;2.70;2.00;;;;;;;;;;5010698;28;20050;-66
2022/10/15 14:29:57;;;;;;;2.65;1.58;;;;;;;;;;4995510;28;20045;-65
2022/10/15 14:32:43;;;;;;;1.80;1.33;;;;;;;;;;4995974;28;20046;-66
2022/10/15 14:35:24;;;;;;;4.95;3.35;;;;;;;;;;5011718;28;20136;-66
2022/10/15 14:38:04;;;;;;;3.30;2.13;;;;;;;;;;5009844;28;20116;-66
2022/10/15 14:40:31;;;;;;;2.78;1.73;;;;;;;;;;5011586;28;20082;-65
2022/10/15 14:43:17;;;;;;;3.28;1.25;;;;;;;;;;5014163;28;20523;-65
2022/10/15 14:45:50;;;;;;;2.30;1.00;;;;;;;;;;5015215;28;20092;-65
2022/10/15 14:48:27;;;;;;;2.42;1.00;;;;;;;;;;5014399;28;20079;-66
2022/10/15 14:50:58;;;;;;;1.20;1.10;;;;;;;;;;5013615;28;20501;-65
2022/10/15 14:53:30;;;;;;;1.30;1.00;;;;;;;;;;5013867;28;20081;-66
2022/10/15 14:56:02;;;;;;;3.83;1.02;;;;;;;;;;4997853;28;20108;-66
2022/10/15 14:58:29;;;;;;;2.03;1.20;;;;;;;;;;5014366;28;20085;-66
2022/10/15 15:01:04;;;;;;;1.83;0.90;;;;;;;;;;4997665;28;20105;-65
2022/10/15 15:03:38;;;;;;;1.27;0.90;;;;;;;;;;5013753;28;20092;-65
2022/10/15 15:06:04;;;;;;;1.95;0.90;;;;;;;;;;5017354;28;20103;-65
2022/10/15 15:08:31;;;;;;;3.53;0.80;;;;;;;;;;5020075;28;20096;-65
2022/10/15 15:10:59;;;;;;;4.05;0.90;;;;;;;;;;5017234;28;20049;-64
2022/10/15 15:13:28;;;;;;;2.03;1.30;;;;;;;;;;5015570;28;20076;-66